createdAt,value
2022-10-25T00:02:15.454Z,95170.44
2022-10-25T00:04:43.559Z,95170.09
2022-10-25T00:07:12.940Z,95164.56
2022-10-25T00:09:40.607Z,95166.69
2022-10-25T00:12:08.746Z,95159.59
2022-10-25T00:14:36.635Z,95151.31
2022-10-25T00:17:04.305Z,95151.19
2022-10-25T00:19:31.999Z,95143.28
2022-10-25T00:21:59.664Z,95143.19
2022-10-25T00:24:29.050Z,95148.03
2022-10-25T00:26:56.716Z,95150.75
2022-10-25T00:31:56.938Z,95154.53
2022-10-25T00:34:24.620Z,95156.19
2022-10-25T00:36:52.295Z,95150.75
2022-10-25T00:39:20.037Z,95151.47
2022-10-25T00:41:49.098Z,95148.97
2022-10-25T00:44:51.413Z,95142.50
2022-10-25T00:47:28.916Z,95154.31
2022-10-25T00:49:58.625Z,95141.19
2022-10-25T00:52:27.383Z,95140.72
2022-10-25T00:54:55.733Z,95124.28
2022-10-25T00:57:28.956Z,95132.31
2022-10-25T00:59:56.757Z,95133.03
2022-10-25T01:02:24.512Z,95134.34
2022-10-25T01:04:52.602Z,95127.13
2022-10-25T01:07:20.461Z,95122.50
2022-10-25T01:09:48.804Z,95121.69
2022-10-25T01:12:16.529Z,95110.47
2022-10-25T01:14:48.362Z,95109.16
2022-10-25T01:17:21.317Z,95114.13
2022-10-25T01:20:14.987Z,95109.50
2022-10-25T01:22:44.670Z,95107.00
2022-10-25T01:25:41.238Z,95117.88
2022-10-25T01:28:11.049Z,95108.44
2022-10-25T01:31:06.649Z,95117.41
2022-10-25T01:33:37.812Z,95115.03
2022-10-25T01:36:11.051Z,95114.56
2022-10-25T01:38:42.546Z,95118.16
2022-10-25T01:41:17.177Z,95104.06
2022-10-25T01:43:52.151Z,95102.41
2022-10-25T01:46:26.074Z,95117.28
2022-10-25T01:48:57.545Z,95118.63
2022-10-25T01:51:27.806Z,95115.91
2022-10-25T01:53:55.882Z,95115.44
2022-10-25T01:56:28.540Z,95123.94
2022-10-25T01:59:19.668Z,95128.06
2022-10-25T02:01:59.157Z,95128.16
2022-10-25T02:04:37.672Z,95129.38
2022-10-25T02:07:08.793Z,95126.16
2022-10-25T02:09:38.707Z,95126.75
2022-10-25T02:12:08.853Z,95129.47
2022-10-25T02:14:39.006Z,95133.25
2022-10-25T02:17:12.109Z,95127.34
2022-10-25T02:19:43.000Z,95116.81
2022-10-25T02:22:11.723Z,95114.69
2022-10-25T02:24:39.875Z,95108.75
2022-10-25T02:27:07.973Z,95106.41
2022-10-25T02:29:36.475Z,95096.94
2022-10-25T02:32:04.902Z,95094.22
2022-10-25T02:34:34.065Z,95086.88
2022-10-25T02:37:01.738Z,95079.31
2022-10-25T02:39:31.640Z,95081.81
2022-10-25T02:42:02.385Z,95088.88
2022-10-25T02:44:30.185Z,95093.50
2022-10-25T02:46:57.931Z,95100.09
2022-10-25T02:49:25.615Z,95106.97
2022-10-25T02:51:54.606Z,95107.88
2022-10-25T02:54:22.532Z,95117.00
2022-10-25T02:56:52.384Z,95122.31
2022-10-25T02:59:21.237Z,95118.03
2022-10-25T03:01:49.365Z,95125.25
2022-10-25T03:04:17.143Z,95125.38
2022-10-25T03:06:44.798Z,95124.88
2022-10-25T03:09:13.910Z,95124.88
2022-10-25T03:11:41.562Z,95127.63
2022-10-25T03:14:09.223Z,95124.13
2022-10-25T03:16:36.938Z,95133.81
2022-10-25T03:19:04.671Z,95134.97
2022-10-25T03:21:32.513Z,95133.44
2022-10-25T03:24:00.246Z,95134.03
2022-10-25T03:26:29.396Z,95136.03
2022-10-25T03:28:57.019Z,95127.13
2022-10-25T03:31:25.192Z,95134.22
2022-10-25T03:33:52.878Z,95143.00
2022-10-25T03:36:20.544Z,95132.66
2022-10-25T03:38:48.178Z,95140.84
2022-10-25T03:41:15.856Z,95144.13
2022-10-25T03:43:44.860Z,95152.06
2022-10-25T03:46:12.539Z,95150.75
2022-10-25T03:48:40.187Z,95152.97
2022-10-25T03:51:07.807Z,95145.66
2022-10-25T03:53:35.461Z,95149.28
2022-10-25T03:56:03.159Z,95145.75
2022-10-25T03:58:30.813Z,95151.53
2022-10-25T04:01:00.833Z,95153.16
2022-10-25T04:03:28.629Z,95151.28
2022-10-25T04:05:56.276Z,95158.38
2022-10-25T04:08:23.955Z,95157.88
2022-10-25T04:10:51.597Z,95161.69
2022-10-25T04:13:19.290Z,95154.91
2022-10-25T04:15:46.930Z,95151.63
2022-10-25T04:18:16.016Z,95153.28
2022-10-25T04:20:43.659Z,95151.63
2022-10-25T04:23:11.341Z,95159.31
2022-10-25T04:25:38.981Z,95157.88
2022-10-25T04:28:06.663Z,95162.53
2022-10-25T04:30:36.653Z,95151.03
2022-10-25T04:33:06.823Z,95154.50
2022-10-25T04:35:37.014Z,95157.69
2022-10-25T04:38:05.663Z,95165.06
2022-10-25T04:40:34.652Z,95162.81
2022-10-25T04:43:03.111Z,95167.44
2022-10-25T04:45:32.626Z,95165.78
2022-10-25T04:48:02.396Z,95167.44
2022-10-25T04:50:31.290Z,95169.94
2022-10-25T04:53:02.716Z,95175.38
2022-10-25T09:11:04.602Z,95300.63
2022-10-25T09:14:37.164Z,95289.38
2022-10-25T09:21:22.400Z,95288.59
2022-10-25T09:24:11.469Z,95282.81
2022-10-25T09:26:43.906Z,95283.09
2022-10-25T09:29:16.823Z,95282.81
2022-10-25T09:31:47.829Z,95280.59
2022-10-25T09:34:16.219Z,95283.06
2022-10-25T09:36:48.477Z,95282.22
2022-10-25T09:40:56.938Z,95285.22
2022-10-25T09:42:29.636Z,95284.13
2022-10-25T09:45:10.131Z,95286.88
2022-10-25T09:50:54.807Z,95290.69
2022-10-25T09:53:24.540Z,95282.94
2022-10-25T09:55:54.153Z,95283.16
2022-10-25T09:58:31.477Z,95293.59
2022-10-25T10:01:02.696Z,95299.09
2022-10-25T10:03:32.301Z,95291.03
2022-10-25T10:06:02.351Z,95300.66
2022-10-25T10:08:34.269Z,95292.94
2022-10-25T10:11:04.913Z,95305.81
2022-10-25T10:13:38.735Z,95300.53
2022-10-25T10:16:12.336Z,95291.16
2022-10-25T10:18:41.462Z,95289.19
2022-10-25T10:21:14.519Z,95301.78
2022-10-25T10:23:52.970Z,95291.78
2022-10-25T10:26:29.807Z,95299.75
2022-10-25T10:29:08.695Z,95296.84
2022-10-25T10:31:38.574Z,95292.38
2022-10-25T10:34:08.553Z,95287.91
2022-10-25T10:36:36.614Z,95289.47
2022-10-25T10:39:23.587Z,95281.88
2022-10-25T10:42:01.092Z,95281.63
2022-10-25T10:44:28.996Z,95286.97
2022-10-25T10:46:57.145Z,95279.28
2022-10-25T10:57:04.823Z,95263.28
2022-10-25T10:59:38.835Z,95270.50
2022-10-25T11:02:29.552Z,95260.78
2022-10-25T11:05:43.983Z,95254.75
2022-10-25T11:08:21.784Z,95251.38
2022-10-25T11:10:50.487Z,95262.28
2022-10-25T11:13:20.621Z,95259.81
2022-10-25T11:16:04.532Z,95249.31
2022-10-25T11:18:42.946Z,95247.94
2022-10-25T11:21:22.607Z,95248.97
2022-10-25T11:24:01.811Z,95245.16
2022-10-25T11:27:12.637Z,95241.56
2022-10-25T11:38:26.651Z,95235.09
2022-10-25T11:40:31.560Z,95222.66
2022-10-25T11:46:37.074Z,95219.16
2022-10-25T11:49:34.961Z,95216.25
2022-10-25T11:52:57.770Z,95217.22
2022-10-25T11:55:19.977Z,95215.38
2022-10-25T11:57:52.388Z,95214.56
2022-10-25T12:00:22.797Z,95221.41
2022-10-25T12:03:17.436Z,95207.66
2022-10-25T12:05:51.700Z,95214.31
2022-10-25T12:08:29.093Z,95215.56
2022-10-25T12:14:05.151Z,95203.56
2022-10-25T12:16:45.234Z,95206.91
2022-10-25T12:19:16.695Z,95205.72
2022-10-25T12:21:49.340Z,95207.47
2022-10-25T12:24:26.557Z,95211.59
2022-10-25T12:27:06.450Z,95207.22
2022-10-25T12:30:04.684Z,95199.16
2022-10-25T12:32:39.281Z,95212.34
2022-10-25T12:35:17.129Z,95205.59
2022-10-25T12:37:58.018Z,95205.47
2022-10-25T12:40:31.309Z,95208.34
2022-10-25T12:43:39.957Z,95198.69
2022-10-25T12:50:10.209Z,95206.69
2022-10-25T12:53:13.531Z,95198.25
2022-10-25T12:55:45.798Z,95195.13
2022-10-25T12:58:33.903Z,95196.63
2022-10-25T13:02:21.273Z,95189.00
2022-10-25T13:05:06.977Z,95190.25
2022-10-25T13:21:56.347Z,95185.56
2022-10-25T16:19:50.161Z,95154.75
2022-10-25T16:22:18.366Z,95157.16
2022-10-25T16:24:46.439Z,95154.69
2022-10-25T16:27:32.585Z,95153.09
2022-10-25T16:30:01.085Z,95153.91
2022-10-25T16:32:29.021Z,95153.09
2022-10-25T16:34:58.696Z,95143.22
2022-10-25T16:37:30.650Z,95151.69
2022-10-25T16:39:58.733Z,95157.41
2022-10-25T16:42:29.411Z,95161.25
2022-10-25T16:44:57.791Z,95162.31
2022-10-25T16:47:25.944Z,95161.78
2022-10-25T16:49:54.076Z,95165.84
2022-10-25T16:52:23.478Z,95168.88
2022-10-25T16:54:51.510Z,95161.09
2022-10-25T17:01:05.788Z,95174.28
2022-10-25T17:03:34.055Z,95164.97
2022-10-25T17:06:16.595Z,95169.13
2022-10-25T17:08:55.617Z,95164.88
2022-10-25T17:11:23.574Z,95169.44
2022-10-25T17:13:51.643Z,95165.91
2022-10-25T17:16:20.785Z,95167.81
2022-10-25T17:18:48.492Z,95173.03
2022-10-25T17:21:17.377Z,95174.41
2022-10-25T17:23:45.030Z,95181.00
2022-10-25T17:26:14.080Z,95172.66
2022-10-25T17:28:44.140Z,95173.75
2022-10-25T17:31:13.785Z,95173.19
2022-10-25T17:33:41.939Z,95165.19
2022-10-25T17:36:11.336Z,95179.59
2022-10-25T17:38:38.994Z,95172.91
2022-10-25T17:41:07.075Z,95166.88
2022-10-25T17:43:37.684Z,95169.56
2022-10-25T17:46:06.923Z,95170.56
2022-10-25T17:48:34.843Z,95178.72
2022-10-25T17:51:03.404Z,95169.38
2022-10-25T17:53:31.047Z,95159.47
2022-10-25T17:55:58.689Z,95169.84
2022-10-25T17:58:26.702Z,95159.97
2022-10-25T18:00:55.743Z,95166.47
2022-10-25T18:03:23.403Z,95161.41
2022-10-25T18:05:51.133Z,95158.63
2022-10-25T18:08:18.844Z,95160.75
2022-10-25T18:10:46.550Z,95160.19
2022-10-25T18:13:14.320Z,95160.69
2022-10-25T18:15:42.038Z,95155.97
2022-10-25T18:18:11.093Z,95159.47
2022-10-25T18:20:41.361Z,95159.41
2022-10-25T18:23:09.482Z,95156.69
2022-10-25T18:25:37.533Z,95154.13
2022-10-25T18:28:05.335Z,95152.88
2022-10-25T18:30:34.462Z,95153.44
2022-10-25T18:33:03.674Z,95149.91
2022-10-25T18:35:32.769Z,95148.81
2022-10-25T18:38:00.516Z,95142.41
2022-10-25T18:40:28.153Z,95140.47
2022-10-25T18:42:55.857Z,95138.00
2022-10-25T18:45:23.698Z,95139.84
2022-10-25T18:47:53.271Z,95142.53
2022-10-25T18:50:21.085Z,95140.22
2022-10-25T18:52:50.246Z,95135.56
2022-10-25T18:57:46.892Z,95126.69
2022-10-25T19:00:16.504Z,95130.81
2022-10-25T19:02:44.348Z,95129.66
2022-10-25T19:05:12.376Z,95127.66
2022-10-25T19:07:40.300Z,95113.78
2022-10-25T19:10:10.439Z,95109.16
2022-10-25T19:12:38.448Z,95114.59
2022-10-25T19:15:07.145Z,95111.13
2022-10-25T19:17:34.842Z,95114.94
2022-10-25T19:20:03.511Z,95112.09
2022-10-25T19:22:32.261Z,95106.88
2022-10-25T19:25:00.489Z,95106.56
2022-10-25T19:27:30.506Z,95103.03
2022-10-25T19:29:58.874Z,95099.38
2022-10-25T19:32:26.955Z,95099.91
2022-10-25T19:34:54.753Z,95089.69
2022-10-25T19:37:22.629Z,95092.66
2022-10-25T19:39:51.732Z,95092.16
2022-10-25T19:42:20.321Z,95092.16
2022-10-25T19:44:49.695Z,95092.16
2022-10-25T19:47:17.447Z,95093.47
2022-10-25T19:49:45.071Z,95089.34
2022-10-25T19:52:12.746Z,95084.97
2022-10-25T19:54:40.401Z,95086.56
2022-10-25T19:57:08.147Z,95084.88
2022-10-25T19:59:35.979Z,95085.13
2022-10-25T20:02:05.532Z,95091.81
2022-10-25T20:04:33.248Z,95087.47
2022-10-25T20:07:00.902Z,95087.97
2022-10-25T20:09:28.561Z,95086.22
2022-10-25T20:11:56.232Z,95079.97
2022-10-25T20:14:23.861Z,95086.06
2022-10-25T20:16:51.508Z,95081.91
2022-10-25T20:19:20.476Z,95083.59
2022-10-25T20:21:48.150Z,95084.88
2022-10-25T20:24:16.114Z,95087.38
2022-10-25T20:26:44.651Z,95092.25
2022-10-25T20:29:18.460Z,95085.66
2022-10-25T20:31:48.808Z,95083.91
2022-10-25T20:34:16.804Z,95077.31
2022-10-25T20:36:45.889Z,95084.41
2022-10-25T20:39:14.008Z,95078.94
2022-10-25T20:41:41.724Z,95073.81
2022-10-25T20:44:10.488Z,95083.41
2022-10-25T20:46:38.244Z,95081.50
2022-10-25T20:49:07.488Z,95080.94
2022-10-25T20:51:35.482Z,95077.31
2022-10-25T20:54:09.336Z,95072.34
2022-10-25T20:56:39.289Z,95070.69
2022-10-25T20:59:07.311Z,95075.47
2022-10-25T21:01:35.054Z,95076.88
2022-10-25T21:04:02.768Z,95073.22
2022-10-25T21:06:30.398Z,95076.25
2022-10-25T21:08:58.071Z,95070.81
2022-10-25T21:11:29.007Z,95067.91
2022-10-25T21:13:56.666Z,95070.63
2022-10-25T21:16:24.335Z,95069.53
2022-10-25T21:18:51.989Z,95067.34
2022-10-25T21:21:20.985Z,95063.69
2022-10-25T21:23:49.223Z,95068.63
2022-10-25T21:26:17.147Z,95058.00
2022-10-25T21:28:46.184Z,95052.13
2022-10-25T21:31:15.079Z,95053.94
2022-10-25T21:33:49.826Z,95059.38
2022-10-25T21:36:18.791Z,95056.00
2022-10-25T21:38:46.475Z,95053.28
2022-10-25T21:41:15.817Z,95045.50
2022-10-25T21:43:44.751Z,95052.34
2022-10-25T21:46:14.523Z,95054.50
2022-10-25T21:48:43.748Z,95044.66
2022-10-25T21:51:11.470Z,95045.97
2022-10-25T21:53:39.213Z,95056.00
2022-10-25T21:56:10.325Z,95055.44
2022-10-25T21:58:38.143Z,95035.09
2022-10-25T22:01:09.070Z,95031.19
2022-10-25T22:03:38.302Z,95031.56
2022-10-25T22:06:06.895Z,95033.84
2022-10-25T22:08:34.653Z,95029.03
2022-10-25T22:11:03.974Z,95018.63
2022-10-25T22:13:31.724Z,95028.22
2022-10-25T22:16:00.354Z,95021.44
2022-10-25T22:18:28.409Z,95021.22
2022-10-25T22:20:59.669Z,95016.72
2022-10-25T22:23:29.052Z,95008.06
2022-10-25T22:26:00.512Z,95011.94
2022-10-25T22:28:28.535Z,95010.38
2022-10-25T22:30:59.448Z,95004.69
2022-10-25T22:33:27.153Z,94997.13
2022-10-25T22:35:54.915Z,95002.56
2022-10-25T22:38:23.997Z,95005.88
2022-10-25T22:40:58.229Z,95015.66
2022-10-25T22:43:26.315Z,95006.56
2022-10-25T22:45:54.222Z,95004.44
2022-10-25T22:48:22.211Z,95006.91
2022-10-25T22:50:51.012Z,95011.53
2022-10-25T22:53:19.248Z,95019.47
2022-10-25T22:55:56.129Z,95013.78
2022-10-25T22:58:24.041Z,95018.97
2022-10-25T23:00:52.210Z,95027.38
2022-10-25T23:03:19.908Z,95019.56
2022-10-25T23:05:47.613Z,95011.31
2022-10-25T23:08:15.293Z,95002.06
2022-10-25T23:10:43.028Z,95005.41
2022-10-25T23:13:12.069Z,95004.94
2022-10-25T23:15:40.068Z,95013.91
2022-10-25T23:18:07.739Z,95012.72
2022-10-25T23:20:35.369Z,95010.75
2022-10-25T23:23:02.968Z,95014.03
2022-10-25T23:25:30.617Z,95010.84
2022-10-25T23:27:58.253Z,95016.63
2022-10-25T23:30:28.775Z,95008.00
2022-10-25T23:32:56.401Z,95000.88
2022-10-25T23:35:24.049Z,95002.56
2022-10-25T23:37:51.799Z,94997.91
2022-10-25T23:40:19.480Z,94986.78
2022-10-25T23:42:47.188Z,94985.47
2022-10-25T23:45:14.861Z,94986.06
2022-10-25T23:47:43.932Z,94968.47
2022-10-25T23:50:11.563Z,94978.09
2022-10-25T23:52:39.200Z,94970.22
2022-10-25T23:55:08.060Z,94965.69
2022-10-25T23:57:35.712Z,94966.75
